Airfield :
LOGIN :

Register | Disclaimer

   EN    FR    IT 

 










Legend :    VFR   Marginal VFR   IFR   Intensive IFR   Very Intensive IFR
Visi :
Ceiling :
>= 8 km
>= 3000ft
5 to 8 km
1000 to 3000 ft
1500m to 5 km
500 to 1000 ft
800 to 1500m
200 to 500 ft
< 800m
< 200 ft
Symbols :   Thunderstorms  Fog  Heavy snow  Heavy precipitations  Wind > 20 kt
SIGMETs :     Misc.  Thunderstorms  Icing  Turbulence  Mountain Waves  Volcanic Ashes






- Airport Elevation : -13 ft
- IATA code : LEY


EHLE - Lelystad

CURRENT METAR :
  • 221255Z AUTO 11004KT 040V170 9999 BKN046 20/09 Q1015 NOSIG

EXPIRED METARs :
  • 221225Z AUTO 13005KT 030V200 9999 NSC 20/09 Q1015 NOSIG
  • 221155Z AUTO VRB04KT 9999 NSC 20/10 Q1015 NOSIG
  • 221125Z AUTO VRB03KT 9999 NSC 19/08 Q1016 NOSIG
  • 221055Z AUTO 18004KT 080V230 9999 NSC 19/10 Q1016 NOSIG
  • 221025Z AUTO 12004KT 040V200 9999 NSC 18/09 Q1016 NOSIG

TAF TAF EHLE
Valid from the 22 at 12:00 until the 23 at 18:00 UTC


221105Z 2212/2318 17005KT CAVOK
BECMG 2215/2218 34007KT
BECMG 2219/2222 12007KT
PROB40
TEMPO 2316/2318 32007KT 7000 -RA BKN020



MET'MAP, your aeronautical weather chart ! - Copyright ORBIFLY December 2007 - Disclaimer

ORBIFLY MET'MAP TEAM :

Programming & Development : Alexandra Zaïnal
Original concept : Baudouin d'Aumeries
Technical & hardware support : Manuel Goepfert
Assistance : Marc-Olivier Méhu

Contact : metmap@orbifly.com




SOURCES & CREDITS :

   NOAA